Time;durP1;ratioP1;P1;durP2;ratioP2;P2;SDS_P1;SDS_P2;PMS_P1;PMS_P2;Temp;Humidity;BMP_temperature;BMP_pressure;BME280_temperature;BME280_humidity;BME280_pressure;Samples;Min_cycle;Max_cycle;Signal;HPM_P1;HPM_P2
2022/07/14 00:01:15;;;;;;;2.95;1.10;;;23.30;71.00;;;;;;5053171;28;20027;-88
2022/07/14 00:03:41;;;;;;;3.38;1.10;;;23.20;71.20;;;;;;5049882;28;20029;-88
2022/07/14 00:06:07;;;;;;;5.78;1.13;;;23.20;71.20;;;;;;5077272;28;20090;-88
2022/07/14 00:08:32;;;;;;;2.00;1.00;;;23.20;70.90;;;;;;5042663;28;20469;-88
2022/07/14 00:10:59;;;;;;;3.63;0.93;;;23.20;70.70;;;;;;5072142;28;20017;-88
2022/07/14 00:13:24;;;;;;;5.72;1.00;;;23.20;70.90;;;;;;5047840;28;20047;-87
2022/07/14 00:15:50;;;;;;;5.20;1.20;;;23.20;71.00;;;;;;5073866;28;20433;-87
2022/07/14 00:18:15;;;;;;;2.50;0.90;;;23.10;71.00;;;;;;5024942;28;20030;-87
2022/07/14 00:20:41;;;;;;;2.22;0.85;;;23.00;71.80;;;;;;5055572;28;20039;-88
2022/07/14 00:23:07;;;;;;;1.20;0.88;;;23.00;72.10;;;;;;5034166;28;20021;-88
2022/07/14 00:25:32;;;;;;;1.70;1.10;;;23.00;72.00;;;;;;5038212;28;20112;-88
2022/07/14 00:27:58;;;;;;;2.67;0.90;;;23.00;71.50;;;;;;5031325;28;20056;-88
2022/07/14 00:30:24;;;;;;;3.22;0.90;;;23.00;71.60;;;;;;5038849;28;20167;-88
2022/07/14 00:32:49;;;;;;;3.83;0.95;;;23.00;72.00;;;;;;5018383;28;20017;-88
2022/07/14 00:35:15;;;;;;;1.25;0.85;;;23.00;72.30;;;;;;5044180;28;20104;-88
2022/07/14 00:37:41;;;;;;;2.38;1.00;;;22.80;72.10;;;;;;5036710;28;20032;-88
2022/07/14 00:40:07;;;;;;;2.75;0.90;;;22.80;72.50;;;;;;5022921;28;20029;-89
2022/07/14 00:42:38;;;;;;;3.58;0.90;;;22.80;72.70;;;;;;5033798;28;20021;-88
2022/07/14 00:45:10;;;;;;;3.80;1.08;;;22.70;73.20;;;;;;5022255;28;20056;-88
2022/07/14 00:47:36;;;;;;;4.72;1.08;;;22.70;73.40;;;;;;5027482;28;20041;-88
2022/07/14 00:50:02;;;;;;;2.13;0.88;;;22.60;73.90;;;;;;5029909;28;20083;-89
2022/07/14 00:52:29;;;;;;;2.03;1.30;;;22.50;74.30;;;;;;5020496;28;20112;-88
2022/07/14 00:54:55;;;;;;;3.78;1.00;;;22.40;74.80;;;;;;5032236;28;20489;-88
2022/07/14 00:57:22;;;;;;;2.38;1.00;;;22.40;74.90;;;;;;5042111;28;20100;-89
2022/07/14 00:59:48;;;;;;;2.78;0.90;;;22.30;74.60;;;;;;5024909;28;20029;-88
2022/07/14 01:02:15;;;;;;;2.25;1.08;;;22.30;74.80;;;;;;5017187;28;20461;-88
2022/07/14 01:04:41;;;;;;;5.10;1.10;;;22.30;74.70;;;;;;5034840;28;20074;-88
2022/07/14 01:07:07;;;;;;;3.38;1.40;;;22.20;74.40;;;;;;5030628;28;20426;-89
2022/07/14 01:09:32;;;;;;;2.17;0.90;;;22.20;74.20;;;;;;5043257;28;20512;-88
2022/07/14 01:11:59;;;;;;;1.50;1.02;;;22.20;74.40;;;;;;5036091;28;20390;-88
2022/07/14 01:14:25;;;;;;;2.67;1.63;;;22.20;74.40;;;;;;5020049;28;20025;-88
2022/07/14 01:16:55;;;;;;;3.00;1.20;;;22.20;74.50;;;;;;5053056;28;20409;-88
2022/07/14 01:19:21;;;;;;;2.60;1.10;;;22.20;74.30;;;;;;5046534;28;20037;-87
2022/07/14 01:21:48;;;;;;;3.50;1.00;;;22.00;74.80;;;;;;5045069;28;20037;-88
2022/07/14 01:24:13;;;;;;;3.17;1.10;;;22.00;75.20;;;;;;5021017;28;20075;-88
2022/07/14 01:26:39;;;;;;;1.85;1.23;;;22.00;75.60;;;;;;5019048;28;20033;-87
2022/07/14 01:29:06;;;;;;;2.83;1.20;;;22.00;75.70;;;;;;5036261;28;20093;-87
2022/07/14 01:31:32;;;;;;;2.20;1.10;;;21.80;76.00;;;;;;5044779;28;20014;-88
2022/07/14 01:33:58;;;;;;;2.30;0.98;;;21.80;75.90;;;;;;5032392;28;20076;-87
2022/07/14 01:36:24;;;;;;;5.38;1.20;;;21.80;76.10;;;;;;5049530;28;20036;-88
2022/07/14 01:38:52;;;;;;;6.18;1.23;;;21.80;75.80;;;;;;5019277;28;20090;-88
2022/07/14 01:41:18;;;;;;;3.95;1.13;;;21.80;75.90;;;;;;5029074;28;20025;-87
2022/07/14 01:43:44;;;;;;;2.38;0.88;;;21.80;75.80;;;;;;5023713;28;20466;-88
2022/07/14 01:46:10;;;;;;;3.83;1.00;;;21.70;76.10;;;;;;5049593;28;20048;-87
2022/07/14 01:48:35;;;;;;;2.47;1.10;;;21.70;76.50;;;;;;5041411;28;20037;-87
2022/07/14 01:51:01;;;;;;;2.50;1.30;;;21.70;76.60;;;;;;5034312;28;20374;-88
2022/07/14 01:53:27;;;;;;;1.90;1.20;;;21.60;76.50;;;;;;5047328;28;20057;-87
2022/07/14 01:55:52;;;;;;;1.83;1.30;;;21.50;76.60;;;;;;5048916;28;20123;-87
2022/07/14 01:58:18;;;;;;;1.77;1.05;;;21.40;77.30;;;;;;5061916;28;20025;-88
2022/07/14 02:01:38;;;;;;;1.50;1.17;;;21.40;78.00;;;;;;5036806;28;20029;-87
2022/07/14 02:03:29;;;;;;;3.72;1.23;;;21.40;78.50;;;;;;5046164;28;20021;-87
2022/07/14 02:05:55;;;;;;;1.90;1.10;;;21.30;78.90;;;;;;5030135;28;20033;-87
2022/07/14 02:08:21;;;;;;;1.17;0.93;;;21.20;79.60;;;;;;5057307;28;20029;-88
2022/07/14 02:13:30;;;;;;;3.13;1.05;;;21.20;78.40;;;;;;5048552;28;20083;-88
2022/07/14 02:15:56;;;;;;;5.18;1.52;;;21.20;78.10;;;;;;5039220;28;20044;-88
2022/07/14 02:18:22;;;;;;;3.83;1.13;;;21.20;77.70;;;;;;5056498;28;20025;-89
2022/07/14 02:20:48;;;;;;;2.33;1.10;;;21.20;79.70;;;;;;5060507;28;20099;-88
2022/07/14 02:23:13;;;;;;;2.78;1.02;;;21.10;80.60;;;;;;5070764;28;20028;-88
2022/07/14 02:25:39;;;;;;;4.30;1.45;;;21.00;81.00;;;;;;5045696;28;20040;-88
2022/07/14 02:28:04;;;;;;;2.92;1.10;;;21.00;79.50;;;;;;5056306;28;20052;-87
2022/07/14 02:30:30;;;;;;;4.80;1.23;;;21.10;78.30;;;;;;5044565;28;20457;-88
2022/07/14 02:32:55;;;;;;;2.47;1.40;;;21.00;78.60;;;;;;5039861;28;20048;-88
2022/07/14 02:35:23;;;;;;;2.65;1.30;;;21.10;77.60;;;;;;5057010;28;20029;-88
2022/07/14 02:37:49;;;;;;;1.35;1.00;;;21.10;77.60;;;;;;5056859;28;20044;-88
2022/07/14 02:40:15;;;;;;;3.85;1.20;;;21.10;78.10;;;;;;5055929;28;20024;-87
2022/07/14 02:42:41;;;;;;;2.47;1.10;;;20.90;78.30;;;;;;5056541;28;20457;-88
2022/07/14 02:45:07;;;;;;;2.85;1.17;;;20.80;78.60;;;;;;5055511;28;20123;-87
2022/07/14 02:47:33;;;;;;;4.90;1.30;;;20.90;78.60;;;;;;5056727;28;20030;-87
2022/07/14 02:49:59;;;;;;;2.10;1.02;;;20.90;78.00;;;;;;5055263;28;20029;-87
2022/07/14 02:52:24;;;;;;;2.72;1.33;;;21.00;78.30;;;;;;5055595;28;20020;-87
2022/07/14 02:54:50;;;;;;;1.75;1.20;;;21.00;78.30;;;;;;5056606;28;20410;-87
2022/07/14 02:57:16;;;;;;;2.92;1.00;;;21.00;78.50;;;;;;5038172;28;20032;-87
2022/07/14 02:59:41;;;;;;;5.82;1.60;;;20.90;78.50;;;;;;5038606;28;20036;-88
2022/07/14 03:02:08;;;;;;;3.13;1.35;;;20.80;78.70;;;;;;5054837;28;20083;-88
2022/07/14 03:04:33;;;;;;;2.45;1.27;;;20.80;79.20;;;;;;5055730;28;20024;-88
2022/07/14 03:06:59;;;;;;;2.65;1.17;;;20.80;79.40;;;;;;5054259;28;20425;-88
2022/07/14 03:09:26;;;;;;;1.42;1.13;;;20.70;79.50;;;;;;5055536;28;20061;-88
2022/07/14 03:11:51;;;;;;;2.35;1.00;;;20.60;80.40;;;;;;5054137;28;20100;-88
2022/07/14 03:14:17;;;;;;;2.35;1.10;;;20.60;80.90;;;;;;5054737;28;20052;-88
2022/07/14 03:16:43;;;;;;;2.65;1.30;;;20.60;81.20;;;;;;5054180;28;20477;-88
2022/07/14 03:19:09;;;;;;;1.85;1.00;;;20.60;81.50;;;;;;5058176;28;20104;-88
2022/07/14 03:21:34;;;;;;;2.75;1.58;;;20.50;82.00;;;;;;5054744;28;20025;-88
2022/07/14 03:24:00;;;;;;;2.35;1.38;;;20.40;82.80;;;;;;5054078;28;20075;-88
2022/07/14 03:26:28;;;;;;;1.95;1.08;;;20.30;83.50;;;;;;5052646;28;20029;-88
2022/07/14 03:28:54;;;;;;;3.05;1.30;;;20.20;83.60;;;;;;5054008;28;20519;-88
2022/07/14 03:31:19;;;;;;;2.90;1.08;;;20.20;83.40;;;;;;5054455;28;20017;-88
2022/07/14 03:33:45;;;;;;;1.65;1.20;;;20.20;83.90;;;;;;5053840;28;20378;-88
2022/07/14 03:36:11;;;;;;;1.30;1.00;;;20.00;84.80;;;;;;5054558;28;20087;-88
2022/07/14 03:38:36;;;;;;;2.25;1.20;;;19.90;85.20;;;;;;5054651;28;20123;-88
2022/07/14 03:41:03;;;;;;;2.35;1.20;;;20.00;85.10;;;;;;5060473;28;20017;-88
2022/07/14 03:43:29;;;;;;;3.28;1.30;;;20.00;85.10;;;;;;5054397;28;20355;-88
2022/07/14 03:45:55;;;;;;;1.42;1.15;;;20.00;84.80;;;;;;5053809;28;20029;-88
2022/07/14 03:48:21;;;;;;;3.63;1.23;;;20.00;84.80;;;;;;5054426;28;20037;-87
2022/07/14 03:50:47;;;;;;;2.00;1.17;;;20.10;84.80;;;;;;5054108;28;20090;-88
2022/07/14 03:53:13;;;;;;;1.50;1.00;;;20.10;84.50;;;;;;5054483;28;20025;-88
2022/07/14 03:55:41;;;;;;;1.70;1.17;;;20.10;83.90;;;;;;5054991;28;20446;-88
2022/07/14 03:58:07;;;;;;;4.38;1.40;;;20.20;83.00;;;;;;5046717;28;20024;-88
2022/07/14 04:00:33;;;;;;;2.53;1.17;;;20.20;82.50;;;;;;5058598;28;20039;-87
2022/07/14 04:02:59;;;;;;;2.83;1.17;;;20.30;83.00;;;;;;5070063;28;20021;-87
2022/07/14 04:05:25;;;;;;;2.40;1.27;;;20.30;83.60;;;;;;5042033;28;20078;-87
2022/07/14 04:07:51;;;;;;;2.33;1.15;;;20.30;83.90;;;;;;5054458;28;20394;-87
2022/07/14 04:10:17;;;;;;;3.35;1.38;;;20.20;84.60;;;;;;5054999;28;20021;-87
2022/07/14 04:12:43;;;;;;;1.50;1.33;;;20.20;84.80;;;;;;5053670;28;20028;-86
2022/07/14 04:15:09;;;;;;;4.65;1.40;;;20.20;84.60;;;;;;5054234;28;20017;-86
2022/07/14 04:17:35;;;;;;;2.45;1.45;;;20.30;83.50;;;;;;5064914;28;20497;-86
2022/07/14 04:20:00;;;;;;;4.85;1.33;;;20.30;84.70;;;;;;5056678;28;20029;-86
2022/07/14 04:22:27;;;;;;;2.20;1.10;;;20.10;85.50;;;;;;5057136;28;20492;-87
2022/07/14 04:24:53;;;;;;;5.85;1.13;;;20.10;86.40;;;;;;5074009;28;20040;-86
2022/07/14 04:27:19;;;;;;;4.35;1.30;;;20.00;87.10;;;;;;5049763;28;20044;-87
2022/07/14 04:29:45;;;;;;;2.35;1.05;;;20.00;87.60;;;;;;5065209;28;20078;-86
2022/07/14 04:32:11;;;;;;;2.60;1.40;;;19.90;87.90;;;;;;5074424;28;20039;-87
2022/07/14 04:34:36;;;;;;;5.47;1.80;;;19.90;88.20;;;;;;5056736;28;20029;-87
2022/07/14 04:37:03;;;;;;;2.78;1.50;;;19.80;88.40;;;;;;5074004;28;20024;-87
2022/07/14 04:39:28;;;;;;;3.80;1.60;;;19.90;88.20;;;;;;5057084;28;20024;-86
2022/07/14 04:41:54;;;;;;;1.40;1.10;;;19.90;87.70;;;;;;5074054;28;20024;-86
2022/07/14 04:44:20;;;;;;;2.83;1.38;;;20.00;87.20;;;;;;5056460;28;20150;-86
2022/07/14 04:46:45;;;;;;;3.05;1.10;;;20.00;86.40;;;;;;5056002;28;20028;-87
2022/07/14 04:52:04;;;;;;;2.13;1.20;;;19.90;87.20;;;;;;5073773;28;20223;-87
2022/07/14 04:54:33;;;;;;;5.03;1.25;;;19.90;87.70;;;;;;5074321;28;20461;-87
2022/07/14 04:56:59;;;;;;;2.45;1.17;;;20.00;88.30;;;;;;5036166;28;20036;-87
2022/07/14 04:59:25;;;;;;;2.40;1.50;;;19.90;89.50;;;;;;5036719;28;20032;-87
2022/07/14 05:01:51;;;;;;;3.10;1.38;;;20.00;87.90;;;;;;5048030;28;20468;-87
2022/07/14 05:04:17;;;;;;;1.27;0.93;;;20.00;87.10;;;;;;5056438;28;20055;-87
2022/07/14 05:06:45;;;;;;;3.95;1.38;;;20.10;85.90;;;;;;5073222;28;20412;-87
2022/07/14 05:09:14;;;;;;;3.42;1.20;;;20.20;85.50;;;;;;5073921;28;20107;-87
2022/07/14 05:11:40;;;;;;;2.25;0.80;;;20.30;85.20;;;;;;5055595;28;20021;-87
2022/07/14 05:14:06;;;;;;;3.42;1.05;;;20.40;85.00;;;;;;5074112;28;20024;-86
2022/07/14 05:16:32;;;;;;;1.63;1.02;;;20.50;85.10;;;;;;5055686;28;20076;-86
2022/07/14 05:18:58;;;;;;;3.20;1.10;;;20.60;84.60;;;;;;5055599;28;20244;-86
2022/07/14 05:21:24;;;;;;;3.72;1.30;;;20.60;84.00;;;;;;5073116;28;20044;-87
2022/07/14 05:23:50;;;;;;;2.13;1.20;;;20.70;84.00;;;;;;5055710;28;20020;-86
2022/07/14 05:26:17;;;;;;;2.72;1.10;;;20.80;83.80;;;;;;5055638;28;20477;-87
2022/07/14 05:28:42;;;;;;;3.05;1.17;;;20.80;83.60;;;;;;5036878;28;20033;-87
2022/07/14 05:31:08;;;;;;;2.75;1.17;;;20.90;83.60;;;;;;5059678;28;20020;-86
2022/07/14 05:33:35;;;;;;;1.63;1.00;;;21.00;83.10;;;;;;5055935;28;20476;-87
2022/07/14 05:36:01;;;;;;;2.95;1.38;;;21.10;82.40;;;;;;5055320;28;20110;-87
2022/07/14 05:38:27;;;;;;;3.08;1.52;;;21.20;81.80;;;;;;5055655;28;20031;-87
2022/07/14 05:40:53;;;;;;;4.75;1.65;;;21.20;81.50;;;;;;5055562;28;20020;-87
2022/07/14 05:43:19;;;;;;;5.68;1.63;;;21.30;81.30;;;;;;5056169;28;20016;-88
2022/07/14 05:45:45;;;;;;;2.10;1.73;;;21.30;80.70;;;;;;5054906;28;20028;-87
2022/07/14 05:48:11;;;;;;;3.53;1.63;;;21.40;80.40;;;;;;5055869;28;20082;-87
2022/07/14 05:50:37;;;;;;;6.78;2.00;;;21.50;79.90;;;;;;5073463;28;20025;-87
2022/07/14 05:53:02;;;;;;;4.55;1.80;;;21.60;80.00;;;;;;5055395;28;20020;-87
2022/07/14 05:55:28;;;;;;;8.40;2.15;;;21.60;79.40;;;;;;5072946;28;20034;-87
2022/07/14 05:57:54;;;;;;;1.90;1.13;;;21.60;78.70;;;;;;5043321;28;20491;-86
2022/07/14 06:00:19;;;;;;;9.50;1.63;;;21.70;78.30;;;;;;5051788;28;20021;-87
2022/07/14 06:02:45;;;;;;;2.50;1.30;;;21.70;78.10;;;;;;5055605;28;20060;-87
2022/07/14 06:05:11;;;;;;;2.28;1.17;;;21.80;78.40;;;;;;5054738;28;20557;-87
2022/07/14 06:07:38;;;;;;;2.33;1.20;;;21.80;77.80;;;;;;5072916;28;20417;-87
2022/07/14 06:10:05;;;;;;;5.03;1.60;;;21.90;77.40;;;;;;5051707;28;20036;-87
2022/07/14 06:12:37;;;;;;;4.35;1.30;;;21.90;77.20;;;;;;5045122;28;20035;-88
2022/07/14 06:15:04;;;;;;;;;;;21.90;77.50;;;;;;5053362;28;20158;-88
2022/07/14 06:17:31;;;;;;;3.22;1.13;;;22.00;77.70;;;;;;5072883;28;19925;-87
2022/07/14 06:20:00;;;;;;;3.53;1.67;;;22.00;77.50;;;;;;5055020;28;20333;-87
2022/07/14 06:22:26;;;;;;;1.92;1.10;;;22.00;77.30;;;;;;5055542;28;20021;-89
2022/07/14 06:24:52;;;;;;;1.92;1.20;;;22.00;76.70;;;;;;5055861;28;20035;-87
2022/07/14 06:27:18;;;;;;;2.13;0.98;;;22.00;76.20;;;;;;5079444;28;20102;-87
2022/07/14 06:29:43;;;;;;;6.93;1.38;;;22.00;76.50;;;;;;5054673;28;20033;-87
2022/07/14 06:32:09;;;;;;;2.10;1.20;;;22.00;76.60;;;;;;5055528;28;20033;-87
2022/07/14 06:34:35;;;;;;;3.03;1.15;;;22.10;76.80;;;;;;5058754;28;20382;-88
2022/07/14 06:37:00;;;;;;;4.30;1.27;;;22.10;77.00;;;;;;5058012;28;20620;-87
2022/07/14 06:39:26;;;;;;;4.50;1.52;;;22.10;76.70;;;;;;5058915;28;20063;-87
2022/07/14 06:41:52;;;;;;;3.97;1.15;;;22.20;76.70;;;;;;5058478;28;20043;-87
2022/07/14 06:44:17;;;;;;;5.25;1.00;;;22.30;76.50;;;;;;5058743;28;20025;-87
2022/07/14 06:46:43;;;;;;;3.13;1.17;;;22.40;76.70;;;;;;5057483;28;20039;-87
2022/07/14 06:49:08;;;;;;;2.08;1.20;;;22.50;76.70;;;;;;5058522;28;20081;-87
2022/07/14 06:51:34;;;;;;;2.13;1.13;;;22.60;76.00;;;;;;5058250;28;20101;-87
2022/07/14 06:54:00;;;;;;;7.63;2.15;;;22.70;76.10;;;;;;5057802;28;20032;-87
2022/07/14 06:56:26;;;;;;;3.70;1.40;;;22.80;75.20;;;;;;5058264;28;20035;-88
2022/07/14 06:58:52;;;;;;;4.57;1.63;;;22.90;74.60;;;;;;5062688;28;20040;-86
2022/07/14 07:01:18;;;;;;;2.75;1.15;;;23.00;74.20;;;;;;5058230;28;20024;-87
2022/07/14 07:03:43;;;;;;;6.00;1.30;;;23.10;74.00;;;;;;5057701;28;20055;-88
2022/07/14 07:08:53;;;;;;;3.63;1.45;;;23.10;73.80;;;;;;5060368;28;20048;-88
2022/07/14 07:11:19;;;;;;;2.72;1.20;;;23.10;74.30;;;;;;5055823;28;20017;-87
2022/07/14 07:13:44;;;;;;;4.43;1.20;;;23.10;74.20;;;;;;5075104;28;20020;-88
2022/07/14 07:16:10;;;;;;;4.25;1.35;;;23.20;74.20;;;;;;5055191;28;20139;-87
2022/07/14 07:18:36;;;;;;;2.42;1.30;;;23.20;74.20;;;;;;5066904;28;20029;-87
2022/07/14 07:21:03;;;;;;;2.40;1.40;;;23.20;74.70;;;;;;5049304;28;20048;-87
2022/07/14 07:23:30;;;;;;;3.28;1.60;;;23.30;74.80;;;;;;5039713;28;20510;-88
2022/07/14 07:25:56;;;;;;;2.65;1.40;;;23.40;74.30;;;;;;5034895;28;20045;-87
2022/07/14 07:28:21;;;;;;;3.03;1.48;;;23.40;73.90;;;;;;5051902;28;20025;-87
2022/07/14 07:30:48;;;;;;;4.50;1.30;;;23.50;74.00;;;;;;5027989;28;20033;-88
2022/07/14 07:33:14;;;;;;;2.08;1.15;;;23.50;74.20;;;;;;5051588;28;20028;-87
2022/07/14 07:35:42;;;;;;;7.40;2.60;;;23.60;73.80;;;;;;5029263;28;20367;-89
2022/07/14 07:38:08;;;;;;;5.35;2.08;;;23.70;73.60;;;;;;5046210;28;20045;-87
2022/07/14 07:40:34;;;;;;;6.00;2.47;;;23.80;72.90;;;;;;5041729;28;20032;-86
2022/07/14 07:42:59;;;;;;;6.43;3.08;;;24.00;72.50;;;;;;5046188;28;20056;-87
2022/07/14 07:45:25;;;;;;;5.40;2.40;;;24.10;71.80;;;;;;5033943;28;20078;-87
2022/07/14 07:47:51;;;;;;;7.57;2.67;;;24.20;71.60;;;;;;5045834;28;20053;-87
2022/07/14 07:50:17;;;;;;;5.97;2.65;;;24.30;71.10;;;;;;5035977;28;20029;-88
2022/07/14 07:52:42;;;;;;;4.22;2.17;;;24.30;71.50;;;;;;5047826;28;20473;-88
2022/07/14 07:55:09;;;;;;;4.93;1.83;;;24.40;71.30;;;;;;5043369;28;20014;-86
2022/07/14 07:57:36;;;;;;;6.60;2.22;;;24.50;71.90;;;;;;5051347;28;20020;-85
2022/07/14 08:00:06;;;;;;;4.85;1.63;;;24.50;71.20;;;;;;5068651;28;20074;-86
2022/07/14 08:02:32;;;;;;;2.97;1.42;;;24.60;71.80;;;;;;5050369;28;20028;-86
2022/07/14 08:04:58;;;;;;;3.38;1.48;;;24.70;72.10;;;;;;5043646;28;20025;-86
2022/07/14 08:07:24;;;;;;;3.40;1.58;;;24.80;71.10;;;;;;5072535;28;20033;-87
2022/07/14 08:09:49;;;;;;;4.25;1.75;;;24.90;71.40;;;;;;5057108;28;20020;-87
2022/07/14 08:12:15;;;;;;;5.28;1.60;;;25.00;70.20;;;;;;5046330;28;20405;-87
2022/07/14 08:14:51;;;;;;;5.28;1.92;;;25.00;70.10;;;;;;5017128;28;20041;-87
2022/07/14 08:17:19;;;;;;;3.58;1.55;;;25.20;69.50;;;;;;5049364;28;20079;-87
2022/07/14 08:19:46;;;;;;;2.42;1.60;;;25.30;69.00;;;;;;5056670;28;20024;-86
2022/07/14 08:22:12;;;;;;;2.55;1.40;;;25.40;69.20;;;;;;5068722;28;20028;-86
2022/07/14 08:24:37;;;;;;;3.70;1.52;;;25.50;68.50;;;;;;5050263;28;20107;-86
2022/07/14 08:27:03;;;;;;;2.70;1.70;;;25.60;68.30;;;;;;5053894;28;20017;-86
2022/07/14 08:29:29;;;;;;;2.05;1.27;;;25.70;68.20;;;;;;5049807;28;20017;-86
2022/07/14 08:31:55;;;;;;;6.22;2.08;;;25.70;68.10;;;;;;5043413;28;20029;-87
2022/07/14 08:34:20;;;;;;;3.35;1.33;;;25.70;68.20;;;;;;5036772;28;20427;-87
2022/07/14 08:36:48;;;;;;;2.88;1.55;;;25.80;67.80;;;;;;5036586;28;20029;-87
2022/07/14 08:39:15;;;;;;;2.90;1.23;;;25.80;67.60;;;;;;5037081;28;20051;-87
2022/07/14 08:41:41;;;;;;;2.13;1.55;;;25.90;66.30;;;;;;5035560;28;20027;-88
2022/07/14 08:44:08;;;;;;;3.80;1.23;;;26.00;66.60;;;;;;5036396;28;20108;-87
2022/07/14 08:46:36;;;;;;;1.85;1.20;;;26.00;66.20;;;;;;5035787;28;20043;-88
2022/07/14 08:49:05;;;;;;;3.90;1.40;;;26.20;65.80;;;;;;5035843;28;20037;-87
2022/07/14 08:51:32;;;;;;;4.35;1.30;;;26.40;65.20;;;;;;5054278;28;20024;-88
2022/07/14 08:53:59;;;;;;;4.10;1.20;;;26.40;64.00;;;;;;5035979;28;20497;-87
2022/07/14 08:56:26;;;;;;;2.75;1.10;;;26.50;63.20;;;;;;5041519;28;20052;-88
2022/07/14 08:58:51;;;;;;;3.97;1.30;;;26.60;64.40;;;;;;5035929;28;20126;-87
2022/07/14 09:01:17;;;;;;;2.67;1.50;;;26.60;65.10;;;;;;5036285;28;20377;-87
2022/07/14 09:03:43;;;;;;;1.90;1.10;;;26.70;65.40;;;;;;5035769;28;20465;-87
2022/07/14 09:06:09;;;;;;;3.08;1.15;;;26.80;64.30;;;;;;5046345;28;20028;-86
2022/07/14 09:08:55;;;;;;;2.58;1.40;;;26.80;64.60;;;;;;5036678;28;20095;-87
2022/07/14 09:11:22;;;;;;;3.78;1.40;;;26.80;66.40;;;;;;5030617;28;20029;-87
2022/07/14 09:13:49;;;;;;;2.40;1.02;;;26.80;65.60;;;;;;5035665;28;20107;-87
2022/07/14 09:16:18;;;;;;;3.47;1.70;;;26.90;64.50;;;;;;5035825;28;20049;-88
2022/07/14 09:19:02;;;;;;;3.05;1.50;;;26.90;66.50;;;;;;5036196;28;20033;-88
2022/07/14 09:21:28;;;;;;;3.65;1.20;;;26.80;67.00;;;;;;5033106;28;20025;-87
2022/07/14 09:23:55;;;;;;;2.88;1.50;;;26.80;66.60;;;;;;5032586;28;20071;-87
2022/07/14 09:26:21;;;;;;;3.15;1.20;;;26.90;66.70;;;;;;5033486;28;20033;-88
2022/07/14 09:28:49;;;;;;;2.50;1.25;;;26.90;65.90;;;;;;5046705;28;20029;-87
2022/07/14 09:31:27;;;;;;;2.35;1.30;;;27.00;64.80;;;;;;5053518;28;20036;-87
2022/07/14 09:33:55;;;;;;;3.05;1.33;;;27.00;64.30;;;;;;5035421;28;20035;-87
2022/07/14 09:36:36;;;;;;;1.60;1.23;;;27.10;63.00;;;;;;5035764;28;20372;-87
2022/07/14 09:39:07;;;;;;;1.95;1.13;;;27.10;62.80;;;;;;5017327;28;20025;-87
2022/07/14 09:41:36;;;;;;;3.90;1.30;;;27.20;61.70;;;;;;5051643;28;20025;-88
2022/07/14 09:44:10;;;;;;;1.48;1.20;;;27.30;61.20;;;;;;5035798;28;20060;-86
2022/07/14 09:46:51;;;;;;;1.23;0.90;;;27.30;59.00;;;;;;5035918;28;20493;-88
2022/07/14 09:49:19;;;;;;;2.27;1.00;;;27.50;58.50;;;;;;5034767;28;20163;-87
2022/07/14 09:51:53;;;;;;;3.38;1.10;;;27.60;58.90;;;;;;5033071;28;20032;-87
2022/07/14 09:54:38;;;;;;;3.33;0.88;;;27.60;58.80;;;;;;5021743;28;20027;-87
2022/07/14 09:57:12;;;;;;;1.33;1.00;;;27.80;57.50;;;;;;5049110;28;20029;-87
2022/07/14 10:00:08;;;;;;;2.10;0.80;;;27.80;58.10;;;;;;5031449;28;20032;-87
2022/07/14 10:02:37;;;;;;;1.48;0.77;;;27.90;58.00;;;;;;5041348;28;20131;-86
2022/07/14 10:05:07;;;;;;;4.55;0.98;;;28.00;58.10;;;;;;5026256;28;20022;-87
2022/07/14 10:07:38;;;;;;;6.97;1.10;;;28.10;58.90;;;;;;5034678;28;20505;-86
2022/07/14 10:10:04;;;;;;;2.97;1.08;;;28.40;58.10;;;;;;5036274;28;20060;-86
2022/07/14 10:12:30;;;;;;;6.55;1.20;;;28.60;57.80;;;;;;5037314;28;20087;-87
2022/07/14 10:15:00;;;;;;;3.53;0.90;;;28.70;57.10;;;;;;5039681;28;20093;-87
2022/07/14 10:17:28;;;;;;;1.00;0.65;;;28.80;57.20;;;;;;5053240;28;20060;-88
2022/07/14 10:19:55;;;;;;;3.80;1.00;;;28.70;57.00;;;;;;5077436;28;20541;-87
2022/07/14 10:22:21;;;;;;;2.20;0.70;;;28.70;57.40;;;;;;5075144;28;20156;-88
2022/07/14 10:24:49;;;;;;;4.55;1.00;;;28.60;57.60;;;;;;5058939;28;20032;-88
2022/07/14 10:27:19;;;;;;;3.58;0.90;;;28.60;58.20;;;;;;5052826;28;20040;-87
2022/07/14 10:29:52;;;;;;;2.05;0.90;;;28.70;57.50;;;;;;5064776;28;20481;-88
2022/07/14 10:32:33;;;;;;;1.00;0.90;;;28.80;56.70;;;;;;5044281;28;20033;-88
2022/07/14 10:35:28;;;;;;;1.58;1.08;;;28.90;56.40;;;;;;5075393;28;20094;-89
2022/07/14 10:38:24;;;;;;;3.22;0.80;;;28.90;55.30;;;;;;5055607;28;20031;-87
2022/07/14 10:41:09;;;;;;;1.80;0.80;;;29.00;56.00;;;;;;5052577;28;20043;-88
2022/07/14 10:44:03;;;;;;;5.05;1.45;;;29.00;54.70;;;;;;5073234;28;20100;-87
2022/07/14 10:46:34;;;;;;;4.07;0.90;;;29.10;54.90;;;;;;5024198;28;20041;-88
2022/07/14 10:49:02;;;;;;;6.70;1.33;;;29.10;55.00;;;;;;5042135;28;20629;-87
2022/07/14 10:51:28;;;;;;;2.60;1.10;;;29.10;55.60;;;;;;5074173;28;20031;-88
2022/07/14 10:53:59;;;;;;;2.13;1.15;;;29.00;55.80;;;;;;5048509;28;20045;-88
2022/07/14 10:56:26;;;;;;;4.53;1.58;;;29.20;55.90;;;;;;5058699;28;20028;-88
2022/07/14 10:59:26;;;;;;;2.67;1.30;;;29.20;55.30;;;;;;5062187;28;20032;-88
2022/07/14 11:02:28;;;;;;;5.20;1.52;;;29.30;55.10;;;;;;5048253;28;20025;-87
2022/07/14 11:05:12;;;;;;;2.72;1.30;;;29.40;55.60;;;;;;4977006;28;20034;-88
2022/07/14 11:07:43;;;;;;;2.70;1.20;;;29.50;54.70;;;;;;5039277;28;20401;-88
2022/07/14 11:10:14;;;;;;;3.10;1.10;;;29.60;54.50;;;;;;5056195;28;20029;-88
2022/07/14 11:12:59;;;;;;;3.25;1.17;;;29.80;54.30;;;;;;5056749;28;20078;-90
2022/07/14 11:15:44;;;;;;;2.67;1.23;;;30.00;53.90;;;;;;5058381;28;20085;-88
2022/07/14 11:18:21;;;;;;;5.38;0.93;;;30.10;53.40;;;;;;5050433;28;20144;-88
2022/07/14 11:21:06;;;;;;;1.83;0.80;;;30.10;53.40;;;;;;5049637;28;20032;-88
2022/07/14 11:23:35;;;;;;;1.00;0.90;;;30.20;52.80;;;;;;5043556;28;20028;-88
2022/07/14 11:26:04;;;;;;;3.30;1.00;;;30.20;53.30;;;;;;5041904;28;20025;-89
2022/07/14 11:28:45;;;;;;;1.25;1.00;;;30.20;53.00;;;;;;5052051;28;20071;-89
2022/07/14 11:31:22;;;;;;;4.30;0.90;;;30.30;52.80;;;;;;5038080;28;20017;-88
2022/07/14 11:36:38;;;;;;;1.23;0.80;;;30.50;52.90;;;;;;5056094;28;20036;-88
2022/07/14 11:39:16;;;;;;;3.67;1.08;;;30.60;52.60;;;;;;5037634;28;20060;-88
2022/07/14 11:41:47;;;;;;;2.95;0.95;;;30.60;52.70;;;;;;5037753;28;20033;-90
2022/07/14 11:44:35;;;;;;;4.18;1.25;;;30.70;52.50;;;;;;5037651;28;20029;-90
2022/07/14 11:47:04;;;;;;;2.40;1.10;;;30.70;51.70;;;;;;5055212;28;20033;-89
2022/07/14 11:49:31;;;;;;;2.95;0.90;;;30.80;52.20;;;;;;5037284;28;20027;-89
2022/07/14 11:51:58;;;;;;;5.72;1.00;;;31.00;51.90;;;;;;5037270;28;20470;-87
2022/07/14 11:54:25;;;;;;;2.90;1.15;;;31.30;52.40;;;;;;5037902;28;20021;-87
2022/07/14 11:57:10;;;;;;;2.05;1.10;;;31.30;51.50;;;;;;5054758;28;20112;-88
2022/07/14 11:59:40;;;;;;;1.48;0.80;;;31.30;50.80;;;;;;5045168;28;20029;-86
2022/07/14 12:02:12;;;;;;;3.70;1.00;;;31.50;50.60;;;;;;5054619;28;20500;-88
2022/07/14 12:04:56;;;;;;;2.38;1.17;;;31.50;50.50;;;;;;5036565;28;20025;-87
2022/07/14 12:07:27;;;;;;;2.33;1.20;;;31.60;49.50;;;;;;5036677;28;20053;-88
2022/07/14 12:09:53;;;;;;;4.13;1.52;;;31.60;49.80;;;;;;5036705;28;20711;-88
2022/07/14 12:12:21;;;;;;;4.72;1.23;;;31.50;50.30;;;;;;5054814;28;20029;-88
2022/07/14 12:14:53;;;;;;;4.38;1.60;;;31.30;50.50;;;;;;5037084;28;20052;-89
2022/07/14 12:17:21;;;;;;;4.78;1.33;;;31.20;51.00;;;;;;5030024;28;20052;-88
2022/07/14 12:19:48;;;;;;;1.02;0.90;;;31.20;50.70;;;;;;5036010;28;20021;-88
2022/07/14 12:22:18;;;;;;;3.58;1.00;;;31.20;51.10;;;;;;5036964;28;20048;-88
2022/07/14 12:24:43;;;;;;;1.88;1.00;;;31.30;51.10;;;;;;5036657;28;20035;-90
2022/07/14 12:27:11;;;;;;;2.20;0.80;;;31.40;50.60;;;;;;5053968;28;20377;-88
2022/07/14 12:29:47;;;;;;;1.50;1.00;;;31.60;50.10;;;;;;5020134;28;20036;-89
2022/07/14 12:32:14;;;;;;;3.97;0.95;;;31.80;50.20;;;;;;5036935;28;20036;-89
2022/07/14 12:34:43;;;;;;;3.60;1.10;;;32.00;49.70;;;;;;5035851;28;20025;-90
2022/07/14 12:37:10;;;;;;;1.63;0.77;;;32.10;48.60;;;;;;5053860;28;20037;-89
2022/07/14 12:39:36;;;;;;;3.70;0.90;;;32.40;48.50;;;;;;5030994;28;20104;-89
2022/07/14 12:42:04;;;;;;;3.22;0.98;;;32.70;48.20;;;;;;5053794;28;20035;-89
2022/07/14 12:44:31;;;;;;;4.28;0.82;;;33.00;48.20;;;;;;5036342;28;20389;-88
2022/07/14 12:47:10;;;;;;;1.98;1.00;;;33.00;48.40;;;;;;5036358;28;20037;-89
2022/07/14 12:49:46;;;;;;;1.77;0.95;;;33.00;47.20;;;;;;5036708;28;20110;-88
2022/07/14 12:52:14;;;;;;;3.40;1.20;;;32.90;47.40;;;;;;5054481;28;20033;-88
2022/07/14 12:54:40;;;;;;;1.15;1.05;;;32.90;46.90;;;;;;5037412;28;20025;-90
2022/07/14 12:57:07;;;;;;;2.40;1.05;;;32.90;47.00;;;;;;5042350;28;20033;-88
2022/07/14 12:59:36;;;;;;;1.20;0.85;;;32.90;47.20;;;;;;5024192;28;20033;-89
2022/07/14 13:02:07;;;;;;;8.85;1.00;;;32.70;47.80;;;;;;5032935;28;20021;-88
2022/07/14 13:04:40;;;;;;;6.63;1.05;;;32.60;47.70;;;;;;5052604;28;20136;-88